createdAt,value
2018-06-10T00:01:27.466Z,18.03
2018-06-10T00:03:54.525Z,16.10
2018-06-10T00:06:21.565Z,17.23
2018-06-10T00:08:48.652Z,18.00
2018-06-10T00:11:15.699Z,19.13
2018-06-10T00:13:42.699Z,22.07
2018-06-10T00:16:09.714Z,24.70
2018-06-10T00:18:36.758Z,24.50
2018-06-10T00:21:03.768Z,24.53
2018-06-10T00:23:30.784Z,23.10
2018-06-10T00:25:57.848Z,22.83
2018-06-10T00:28:30.504Z,25.47
2018-06-10T00:30:57.627Z,25.00
2018-06-10T00:33:24.680Z,24.37
2018-06-10T00:35:51.757Z,24.53
2018-06-10T00:38:18.809Z,22.50
2018-06-10T00:40:45.881Z,24.53
2018-06-10T00:43:12.901Z,26.50
2018-06-10T00:45:39.910Z,26.07
2018-06-10T00:48:06.951Z,24.80
2018-06-10T00:50:33.952Z,26.57
2018-06-10T00:53:00.981Z,26.90
2018-06-10T00:55:28.035Z,25.70
2018-06-10T00:57:55.053Z,27.07
2018-06-10T01:00:22.116Z,27.97
2018-06-10T01:02:49.088Z,28.47
2018-06-10T01:05:16.080Z,25.60
2018-06-10T01:07:43.160Z,26.47
2018-06-10T01:10:10.322Z,26.27
2018-06-10T01:12:37.352Z,25.23
2018-06-10T01:15:04.400Z,25.97
2018-06-10T01:17:31.368Z,24.83
2018-06-10T01:19:58.411Z,24.73
2018-06-10T01:22:25.474Z,26.73
2018-06-10T01:24:52.568Z,25.20
2018-06-10T01:27:19.549Z,26.47
2018-06-10T01:29:46.545Z,26.10
2018-06-10T01:32:13.644Z,24.60
2018-06-10T01:34:40.645Z,27.70
2018-06-10T01:37:07.774Z,27.30
2018-06-10T01:39:34.832Z,28.13
2018-06-10T01:42:01.834Z,28.47
2018-06-10T01:44:28.897Z,30.40
2018-06-10T01:46:56.015Z,26.27
2018-06-10T01:49:23.037Z,25.23
2018-06-10T01:51:50.048Z,25.47
2018-06-10T01:54:17.154Z,24.33
2018-06-10T01:56:44.192Z,25.30
2018-06-10T01:59:11.256Z,27.67
2018-06-10T02:01:38.276Z,26.97
2018-06-10T02:04:05.315Z,27.37
2018-06-10T02:06:32.336Z,26.53
2018-06-10T02:08:59.383Z,24.97
2018-06-10T02:11:26.395Z,26.50
2018-06-10T02:16:27.178Z,29.50
2018-06-10T02:18:54.194Z,32.60
2018-06-10T02:21:21.236Z,27.17
2018-06-10T02:23:48.272Z,32.27
2018-06-10T02:26:15.328Z,35.17
2018-06-10T02:28:42.313Z,38.43
2018-06-10T02:31:09.312Z,36.57
2018-06-10T02:33:36.411Z,33.83
2018-06-10T02:36:03.439Z,35.70
2018-06-10T02:38:30.436Z,34.40
2018-06-10T02:40:57.510Z,34.40
2018-06-10T02:43:24.559Z,35.73
2018-06-10T02:45:51.579Z,34.13
2018-06-10T02:48:18.569Z,32.33
2018-06-10T02:50:45.597Z,31.10
2018-06-10T02:53:12.625Z,28.90
2018-06-10T02:55:39.659Z,28.10
2018-06-10T02:58:06.754Z,34.03
2018-06-10T03:00:33.825Z,31.97
2018-06-10T03:03:00.913Z,32.37
2018-06-10T03:05:27.989Z,31.77
2018-06-10T03:07:55.060Z,26.97
2018-06-10T03:10:22.089Z,31.70
2018-06-10T03:12:49.116Z,31.73
2018-06-10T03:15:16.157Z,32.20
2018-06-10T03:17:43.149Z,30.07
2018-06-10T03:20:10.164Z,30.07
2018-06-10T03:22:37.292Z,33.37
2018-06-10T03:25:04.601Z,30.60
2018-06-10T03:27:31.595Z,32.67
2018-06-10T03:29:58.623Z,29.60
2018-06-10T03:32:25.696Z,30.23
2018-06-10T03:34:52.733Z,32.93
2018-06-10T03:37:19.760Z,31.33
2018-06-10T03:39:46.826Z,31.80
2018-06-10T03:42:13.836Z,31.30
2018-06-10T03:44:40.956Z,35.20
2018-06-10T03:47:08.020Z,31.17
2018-06-10T03:49:35.029Z,31.47
2018-06-10T03:52:01.995Z,32.93
2018-06-10T03:54:29.019Z,31.97
2018-06-10T03:56:56.060Z,32.50
2018-06-10T03:59:23.054Z,36.73
2018-06-10T04:01:50.040Z,31.80
2018-06-10T04:04:17.041Z,34.67
2018-06-10T04:06:44.142Z,33.97
2018-06-10T04:09:11.153Z,37.40
2018-06-10T04:11:38.159Z,33.73
2018-06-10T04:14:05.224Z,36.03
2018-06-10T04:16:32.222Z,36.70
2018-06-10T04:18:59.299Z,36.03
2018-06-10T04:21:26.353Z,35.63
2018-06-10T04:23:54.190Z,36.97
2018-06-10T04:26:21.188Z,33.13
2018-06-10T04:28:48.255Z,33.67
2018-06-10T04:31:15.275Z,36.43
2018-06-10T04:33:42.323Z,36.57
2018-06-10T04:36:09.417Z,33.63
2018-06-10T04:38:36.469Z,34.07
2018-06-10T04:41:03.460Z,34.63
2018-06-10T04:43:30.459Z,33.07
2018-06-10T04:45:57.521Z,32.57
2018-06-10T04:48:24.566Z,33.90
2018-06-10T04:50:51.623Z,31.87
2018-06-10T04:53:18.698Z,33.00
2018-06-10T04:55:45.755Z,31.97
2018-06-10T04:58:12.848Z,31.00
2018-06-10T05:00:39.908Z,30.00
2018-06-10T05:03:06.972Z,34.23
2018-06-10T05:05:34.082Z,31.90
2018-06-10T05:08:01.144Z,29.50
2018-06-10T05:10:28.144Z,33.87
2018-06-10T05:12:55.132Z,32.33
2018-06-10T05:15:22.182Z,30.77
2018-06-10T05:17:49.358Z,30.50
2018-06-10T05:20:16.385Z,31.93
2018-06-10T05:22:43.408Z,30.47
2018-06-10T05:25:10.459Z,33.50
2018-06-10T05:27:37.481Z,31.90
2018-06-10T05:30:04.462Z,32.87
2018-06-10T05:32:31.496Z,33.80
2018-06-10T05:34:58.484Z,34.27
2018-06-10T05:37:25.542Z,33.50
2018-06-10T05:39:52.614Z,38.07
2018-06-10T05:42:19.933Z,36.43
2018-06-10T05:44:46.948Z,36.53
2018-06-10T05:47:14.010Z,35.30
2018-06-10T05:49:41.053Z,37.90
2018-06-10T05:52:08.018Z,34.90
2018-06-10T05:54:35.096Z,35.90
2018-06-10T05:57:02.101Z,34.50
2018-06-10T05:59:29.120Z,33.77
2018-06-10T06:01:56.196Z,32.20
2018-06-10T06:04:23.196Z,34.33
2018-06-10T06:06:50.190Z,37.10
2018-06-10T06:09:17.296Z,35.00
2018-06-10T06:11:44.336Z,30.37
2018-06-10T06:14:11.336Z,32.87
2018-06-10T06:16:38.417Z,31.50
2018-06-10T06:19:05.420Z,33.60
2018-06-10T06:21:32.507Z,35.07
2018-06-10T06:23:59.605Z,34.00
2018-06-10T06:26:26.635Z,35.40
2018-06-10T06:28:53.731Z,38.30
2018-06-10T06:31:20.849Z,38.40
2018-06-10T06:33:47.868Z,39.63
2018-06-10T06:36:14.873Z,35.50
2018-06-10T06:55:26.688Z,37.70
2018-06-10T06:57:53.776Z,35.97
2018-06-10T07:00:21.209Z,36.67
2018-06-10T07:02:48.340Z,35.93
2018-06-10T07:05:15.459Z,37.17
2018-06-10T07:07:42.785Z,38.73
2018-06-10T07:10:09.833Z,37.73
2018-06-10T07:12:37.926Z,39.27
2018-06-10T07:15:05.704Z,39.60
2018-06-10T07:17:32.943Z,41.90
2018-06-10T07:20:00.945Z,39.77
2018-06-10T07:22:27.996Z,36.13
2018-06-10T07:24:55.700Z,43.00
2018-06-10T07:27:22.708Z,37.73
2018-06-10T07:29:50.275Z,36.40
2018-06-10T07:32:17.299Z,33.97
2018-06-10T07:34:44.368Z,36.97
2018-06-10T07:37:11.799Z,35.03
2018-06-10T07:39:38.801Z,33.63
2018-06-10T07:42:05.853Z,39.60
2018-06-10T07:44:32.965Z,35.20
2018-06-10T07:47:00.057Z,36.67
2018-06-10T07:49:27.075Z,33.93
2018-06-10T07:51:54.196Z,33.97
2018-06-10T07:54:21.229Z,30.50
2018-06-10T07:56:48.732Z,32.30
2018-06-10T07:59:15.885Z,33.70
2018-06-10T08:01:43.128Z,32.17
2018-06-10T08:04:10.184Z,29.83
2018-06-10T08:06:37.265Z,34.67
2018-06-10T08:09:06.183Z,34.60
2018-06-10T08:11:33.275Z,33.00
2018-06-10T08:14:00.381Z,30.37
2018-06-10T08:16:27.501Z,33.67
2018-06-10T08:18:54.569Z,32.73
2018-06-10T08:21:21.694Z,34.60
2018-06-10T08:23:48.798Z,33.37
2018-06-10T08:26:15.843Z,32.90
2018-06-10T08:28:42.920Z,31.80
2018-06-10T08:31:10.028Z,30.77
2018-06-10T08:33:37.177Z,29.73
2018-06-10T08:36:04.351Z,33.13
2018-06-10T08:38:31.576Z,29.00
2018-06-10T08:40:58.903Z,31.43
2018-06-10T08:43:26.008Z,29.10
2018-06-10T08:45:53.141Z,29.13
2018-06-10T08:48:20.365Z,30.47
2018-06-10T09:07:33.217Z,23.97
2018-06-10T09:10:00.466Z,26.57
2018-06-10T09:12:27.829Z,24.17
2018-06-10T09:14:55.993Z,21.10
2018-06-10T09:17:23.910Z,21.27
2018-06-10T09:19:51.569Z,22.60
2018-06-10T09:22:19.271Z,22.13
2018-06-10T09:24:48.262Z,17.67
2018-06-10T09:27:16.249Z,18.90
2018-06-10T09:29:43.620Z,19.83
2018-06-10T09:32:11.298Z,18.40
2018-06-10T09:34:39.224Z,20.83
2018-06-10T09:37:06.576Z,22.03
2018-06-10T09:39:35.309Z,19.53
2018-06-10T09:42:02.653Z,19.70
2018-06-10T09:44:29.792Z,25.07
2018-06-10T09:46:57.927Z,19.30
2018-06-10T09:49:25.020Z,23.43
2018-06-10T09:51:52.552Z,23.10
2018-06-10T09:54:20.320Z,19.43
2018-06-10T09:56:47.654Z,23.47
2018-06-10T09:59:15.034Z,24.40
2018-06-10T10:01:42.515Z,22.60
2018-06-10T10:04:10.139Z,20.77
2018-06-10T10:06:37.312Z,21.67
2018-06-10T10:09:06.491Z,20.60
2018-06-10T10:11:33.726Z,21.37
2018-06-10T10:14:00.854Z,22.20
2018-06-10T10:16:28.053Z,23.97
2018-06-10T10:18:55.655Z,21.30
2018-06-10T10:21:22.810Z,29.03
2018-06-10T10:23:50.102Z,21.17
2018-06-10T10:26:17.532Z,40.03
2018-06-10T10:28:45.013Z,29.97
2018-06-10T10:31:13.049Z,24.10
2018-06-10T10:33:40.929Z,21.67
2018-06-10T10:36:10.419Z,23.57
2018-06-10T10:38:37.827Z,27.13
2018-06-10T10:41:05.853Z,21.40
2018-06-10T10:43:32.973Z,22.53
2018-06-10T10:46:00.064Z,22.53
2018-06-10T10:48:27.612Z,19.97
2018-06-10T10:50:56.685Z,20.03
2018-06-10T10:53:24.170Z,19.70
2018-06-10T10:55:52.092Z,20.27
2018-06-10T10:58:20.656Z,19.97
2018-06-10T11:00:50.044Z,20.77
2018-06-10T11:03:17.883Z,19.23
2018-06-10T11:05:45.081Z,20.30
2018-06-10T11:08:12.344Z,18.73
2018-06-10T11:10:39.462Z,16.90
2018-06-10T11:13:06.653Z,18.23
2018-06-10T11:15:33.837Z,16.90
2018-06-10T11:18:01.048Z,17.23
2018-06-10T11:20:28.311Z,17.23
2018-06-10T11:22:55.568Z,18.03
2018-06-10T11:25:22.740Z,19.43
2018-06-10T11:27:50.122Z,18.03
2018-06-10T11:30:17.284Z,19.63
2018-06-10T11:32:44.394Z,18.40
2018-06-10T11:35:14.119Z,19.10
2018-06-10T11:37:42.713Z,18.93
2018-06-10T11:40:09.946Z,18.37
2018-06-10T11:42:37.844Z,18.30
2018-06-10T11:45:05.703Z,17.87
2018-06-10T11:47:32.918Z,18.10
2018-06-10T11:50:00.260Z,18.13
2018-06-10T11:52:27.632Z,17.87
2018-06-10T11:54:54.869Z,16.23
2018-06-10T11:57:22.080Z,16.70
2018-06-10T11:59:49.400Z,18.23
2018-06-10T12:02:16.952Z,17.63
2018-06-10T12:04:44.478Z,18.17
2018-06-10T12:07:12.169Z,15.73
2018-06-10T12:09:40.140Z,15.87
2018-06-10T12:12:07.750Z,15.93
2018-06-10T12:14:34.989Z,20.50
2018-06-10T12:17:02.514Z,15.83
2018-06-10T12:19:31.045Z,15.63
2018-06-10T12:21:59.162Z,16.40
2018-06-10T12:24:27.632Z,15.90
2018-06-10T12:26:55.097Z,17.17
2018-06-10T12:29:22.610Z,16.30
2018-06-10T12:31:51.916Z,17.10
2018-06-10T12:34:19.280Z,17.03
2018-06-10T12:36:46.746Z,16.60
2018-06-10T12:39:13.981Z,16.20
2018-06-10T12:41:41.949Z,16.57
2018-06-10T12:44:09.155Z,16.23
2018-06-10T12:46:36.357Z,16.50
2018-06-10T12:49:04.060Z,16.03
2018-06-10T12:51:31.255Z,16.23
2018-06-10T12:53:59.215Z,15.20
2018-06-10T12:56:26.448Z,15.53
2018-06-10T12:58:55.163Z,15.37
2018-06-10T13:01:23.426Z,16.43
2018-06-10T13:03:50.906Z,14.83
2018-06-10T13:06:18.271Z,14.47
2018-06-10T13:08:46.164Z,15.10
2018-06-10T13:11:13.678Z,15.03
2018-06-10T13:13:40.897Z,15.37
2018-06-10T13:16:08.122Z,16.30
2018-06-10T13:18:35.320Z,16.20
2018-06-10T13:21:03.300Z,15.83
2018-06-10T13:23:31.293Z,15.17
2018-06-10T13:25:58.625Z,14.60
2018-06-10T13:28:26.425Z,12.87
2018-06-10T13:30:53.735Z,13.10
2018-06-10T13:33:20.961Z,11.53
2018-06-10T13:35:48.193Z,11.70
2018-06-10T13:38:15.433Z,11.97
2018-06-10T13:40:42.837Z,12.23
2018-06-10T13:43:10.169Z,13.00
2018-06-10T13:45:37.449Z,12.30
2018-06-10T13:48:04.702Z,12.37
2018-06-10T13:50:32.817Z,12.23
2018-06-10T13:53:01.869Z,12.03
2018-06-10T13:55:29.136Z,12.40
2018-06-10T13:57:57.342Z,12.50
2018-06-10T14:00:26.137Z,11.97
2018-06-10T14:02:53.934Z,12.57
2018-06-10T14:05:21.951Z,12.57
2018-06-10T14:07:50.613Z,12.00
2018-06-10T14:10:18.117Z,12.67
2018-06-10T14:12:46.143Z,12.70
2018-06-10T14:15:13.506Z,13.30
2018-06-10T14:17:41.869Z,13.57
2018-06-10T14:20:09.973Z,13.37
2018-06-10T14:22:37.929Z,14.20
2018-06-10T14:25:05.544Z,12.30
2018-06-10T14:27:32.917Z,13.67
2018-06-10T14:30:00.258Z,13.10
2018-06-10T14:32:27.640Z,16.37
2018-06-10T14:34:55.012Z,13.90
2018-06-10T14:37:22.346Z,12.77
2018-06-10T14:39:49.664Z,12.13
2018-06-10T14:42:17.072Z,13.60
2018-06-10T14:44:44.262Z,13.43
2018-06-10T14:47:11.600Z,12.70
2018-06-10T14:49:38.965Z,13.13
2018-06-10T14:52:06.177Z,12.53
2018-06-10T14:54:34.169Z,12.47
2018-06-10T14:57:03.977Z,12.90
2018-06-10T14:59:32.569Z,14.40
2018-06-10T15:02:00.970Z,12.07
2018-06-10T15:04:29.011Z,11.37
2018-06-10T15:06:57.667Z,12.20
2018-06-10T15:09:26.140Z,12.43
2018-06-10T15:11:53.627Z,11.37
2018-06-10T15:14:21.193Z,11.10
2018-06-10T15:16:49.390Z,10.70
2018-06-10T15:19:17.667Z,12.23
2018-06-10T15:21:45.833Z,13.13
2018-06-10T15:24:14.469Z,12.77
2018-06-10T15:26:43.107Z,12.93
2018-06-10T15:29:10.412Z,13.10
2018-06-10T15:31:39.032Z,12.93
2018-06-10T15:34:07.028Z,13.30
2018-06-10T15:36:34.577Z,12.37
2018-06-10T15:39:01.978Z,14.60
2018-06-10T15:41:31.461Z,12.40
2018-06-10T15:43:59.732Z,14.07
2018-06-10T15:46:28.405Z,14.93
2018-06-10T15:48:57.013Z,13.03
2018-06-10T15:51:24.766Z,12.60
2018-06-10T15:53:52.066Z,13.63
2018-06-10T15:56:19.561Z,12.13
2018-06-10T15:58:47.841Z,16.27
2018-06-10T16:01:15.608Z,14.00
2018-06-10T16:03:44.124Z,18.57
2018-06-10T16:06:11.607Z,15.77
2018-06-10T16:08:40.746Z,12.83
2018-06-10T16:11:08.821Z,11.57
2018-06-10T16:13:37.999Z,12.30
2018-06-10T16:16:06.195Z,13.77
2018-06-10T16:18:33.443Z,13.93
2018-06-10T16:21:01.912Z,14.40
2018-06-10T16:23:29.550Z,13.17
2018-06-10T16:25:57.043Z,13.30
2018-06-10T16:28:25.859Z,14.47
2018-06-10T16:30:53.305Z,12.87
2018-06-10T16:33:20.831Z,13.20
2018-06-10T16:35:48.697Z,13.47
2018-06-10T16:38:16.898Z,13.37
2018-06-10T16:40:45.998Z,13.53
2018-06-10T16:43:15.519Z,13.10
2018-06-10T16:45:43.020Z,11.97
2018-06-10T16:48:10.461Z,15.13
2018-06-10T16:50:39.493Z,14.63
2018-06-10T16:53:06.876Z,14.03
2018-06-10T16:55:34.183Z,13.80
2018-06-10T16:58:03.403Z,14.37
2018-06-10T17:00:30.665Z,13.13
2018-06-10T17:02:58.000Z,16.10
2018-06-10T17:05:25.370Z,13.90
2018-06-10T17:07:52.977Z,13.83
2018-06-10T17:10:20.849Z,13.97
2018-06-10T17:12:48.150Z,13.50
2018-06-10T17:15:15.450Z,13.20
2018-06-10T17:17:42.940Z,14.13
2018-06-10T17:20:10.241Z,14.37
2018-06-10T17:22:37.558Z,14.00
2018-06-10T17:25:04.898Z,13.33
2018-06-10T17:27:33.159Z,14.00
2018-06-10T17:30:01.077Z,14.47
2018-06-10T17:32:29.405Z,13.83
2018-06-10T17:34:56.657Z,14.87
2018-06-10T17:37:23.953Z,13.70
2018-06-10T17:39:51.493Z,13.93
2018-06-10T17:42:18.814Z,15.77
2018-06-10T17:44:46.763Z,14.40
2018-06-10T17:47:14.560Z,15.00
2018-06-10T17:49:41.889Z,17.47
2018-06-10T17:52:09.392Z,15.43
2018-06-10T17:54:36.745Z,13.83
2018-06-10T17:57:04.121Z,15.50
2018-06-10T17:59:32.076Z,15.37
2018-06-10T18:01:59.320Z,14.83
2018-06-10T18:04:27.574Z,15.57
2018-06-10T18:06:54.754Z,16.67
2018-06-10T18:09:21.957Z,14.90
2018-06-10T18:11:49.277Z,15.03
2018-06-10T18:14:17.755Z,17.20
2018-06-10T18:16:45.025Z,16.83
2018-06-10T18:19:16.015Z,17.70
2018-06-10T18:21:43.329Z,16.97
2018-06-10T18:24:11.352Z,16.57
2018-06-10T18:26:39.297Z,16.50
2018-06-10T18:29:06.744Z,16.60
2018-06-10T18:31:34.906Z,15.77
2018-06-10T18:34:02.195Z,17.83
2018-06-10T18:36:29.709Z,16.33
2018-06-10T18:38:58.703Z,15.87
2018-06-10T18:41:26.726Z,16.03
2018-06-10T18:43:54.024Z,17.10
2018-06-10T18:46:21.906Z,15.70
2018-06-10T18:48:49.261Z,15.70
2018-06-10T18:51:17.279Z,16.17
2018-06-10T18:53:44.827Z,13.10
2018-06-10T18:56:12.535Z,14.20
2018-06-10T18:58:39.959Z,13.70
2018-06-10T19:01:08.037Z,13.43
2018-06-10T19:03:36.557Z,14.30
2018-06-10T19:06:04.325Z,14.13
2018-06-10T19:08:32.291Z,13.23
2018-06-10T19:11:00.276Z,15.17
2018-06-10T19:13:29.293Z,13.43
2018-06-10T19:15:59.935Z,13.33
2018-06-10T19:18:27.666Z,12.70
2018-06-10T19:20:55.145Z,18.63
2018-06-10T19:23:24.665Z,13.73
2018-06-10T19:25:53.972Z,13.60
2018-06-10T19:28:21.987Z,14.07
2018-06-10T19:30:50.056Z,12.70
2018-06-10T19:33:17.636Z,12.87
2018-06-10T19:35:45.805Z,12.87
2018-06-10T19:38:13.473Z,12.57
2018-06-10T19:40:41.626Z,12.80
2018-06-10T19:43:09.300Z,12.43
2018-06-10T19:45:39.682Z,13.53
2018-06-10T19:48:07.438Z,12.03
2018-06-10T19:50:34.722Z,12.30
2018-06-10T19:53:01.969Z,11.47
2018-06-10T19:55:29.328Z,16.10
2018-06-10T19:57:57.826Z,12.13
2018-06-10T20:00:25.154Z,14.50
2018-06-10T20:02:55.221Z,13.20
2018-06-10T20:05:23.075Z,14.00
2018-06-10T20:07:52.939Z,13.00
2018-06-10T20:10:21.256Z,12.67
2018-06-10T20:12:49.697Z,11.10
2018-06-10T20:15:17.068Z,12.47
2018-06-10T20:17:44.721Z,13.67
2018-06-10T20:20:12.390Z,11.53
2018-06-10T20:22:39.904Z,10.13
2018-06-10T20:25:07.556Z,10.23
2018-06-10T20:27:34.896Z,9.87
2018-06-10T20:30:03.237Z,10.60
2018-06-10T20:32:30.793Z,9.83
2018-06-10T20:34:58.597Z,10.70
2018-06-10T20:37:26.677Z,10.60
2018-06-10T20:39:53.876Z,11.33
2018-06-10T20:42:21.740Z,10.53
2018-06-10T20:44:50.017Z,10.70
2018-06-10T20:47:17.362Z,11.60
2018-06-10T20:49:45.563Z,11.10
2018-06-10T20:52:12.946Z,12.43
2018-06-10T20:54:40.367Z,11.53
2018-06-10T20:57:07.870Z,11.83
2018-06-10T20:59:35.133Z,11.40
2018-06-10T21:02:03.517Z,11.13
2018-06-10T21:04:31.369Z,10.70
2018-06-10T21:06:58.730Z,11.60
2018-06-10T21:09:26.040Z,11.07
2018-06-10T21:11:53.386Z,11.57
2018-06-10T21:14:20.675Z,10.60
2018-06-10T21:16:47.982Z,10.57
2018-06-10T21:19:15.277Z,10.20
2018-06-10T21:21:44.042Z,10.10
2018-06-10T21:24:11.627Z,9.83
2018-06-10T21:26:39.349Z,10.23
2018-06-10T21:29:10.100Z,10.47
2018-06-10T21:31:38.281Z,10.77
2018-06-10T21:34:05.728Z,12.43
2018-06-10T21:36:34.385Z,10.67
2018-06-10T21:39:03.123Z,10.00
2018-06-10T21:41:31.211Z,10.40
2018-06-10T21:43:58.436Z,10.23
2018-06-10T21:46:26.739Z,12.20
2018-06-10T21:48:54.464Z,11.90
2018-06-10T21:51:22.893Z,10.53
2018-06-10T21:53:51.386Z,10.30
2018-06-10T21:56:18.702Z,13.77
2018-06-10T21:58:46.537Z,10.63
2018-06-10T22:01:13.947Z,10.60
2018-06-10T22:03:42.605Z,10.33
2018-06-10T22:06:10.189Z,11.90
2018-06-10T22:08:37.647Z,11.07
2018-06-10T22:11:05.015Z,10.33
2018-06-10T22:13:32.384Z,11.03
2018-06-10T22:16:00.032Z,10.63
2018-06-10T22:18:27.487Z,11.63
2018-06-10T22:20:55.821Z,12.20
2018-06-10T22:23:23.279Z,11.60
2018-06-10T22:25:50.798Z,12.33
2018-06-10T22:28:18.849Z,12.13
2018-06-10T22:30:46.267Z,15.60
2018-06-10T22:33:13.711Z,15.77
2018-06-10T22:35:41.143Z,15.03
2018-06-10T22:38:08.476Z,15.87
2018-06-10T22:40:36.877Z,14.60
2018-06-10T22:43:04.913Z,16.23
2018-06-10T22:45:32.245Z,17.47
2018-06-10T22:47:59.527Z,16.90
2018-06-10T22:50:26.828Z,18.00
2018-06-10T22:53:03.938Z,18.03
2018-06-10T22:55:31.546Z,18.27
2018-06-10T22:57:58.912Z,17.43
2018-06-10T23:00:26.141Z,18.17
2018-06-10T23:02:53.649Z,19.17
2018-06-10T23:05:21.311Z,19.00
2018-06-10T23:07:48.662Z,18.53
2018-06-10T23:10:16.133Z,17.87
2018-06-10T23:12:44.353Z,18.00
2018-06-10T23:15:11.712Z,17.47
2018-06-10T23:17:39.818Z,20.20
2018-06-10T23:20:13.990Z,19.43
2018-06-10T23:22:41.364Z,20.47
2018-06-10T23:25:09.482Z,20.23
2018-06-10T23:27:38.194Z,19.13
2018-06-10T23:30:05.648Z,19.90
2018-06-10T23:32:33.958Z,21.13
2018-06-10T23:35:01.297Z,20.33
2018-06-10T23:37:29.106Z,19.43
2018-06-10T23:39:56.413Z,20.80
2018-06-10T23:42:23.765Z,21.87
2018-06-10T23:44:51.157Z,20.57
2018-06-10T23:47:18.322Z,20.10
2018-06-10T23:49:45.525Z,20.30
2018-06-10T23:52:18.894Z,21.80
2018-06-10T23:54:46.333Z,21.43
2018-06-10T23:57:13.649Z,21.73
2018-06-10T23:59:41.813Z,22.33
